sensor_id;sensor_type;location;lat;lon;timestamp;P1;durP1;ratioP1;P2;durP2;ratioP2
59434;SDS011;45241;49.768;8.636;2023-02-28T00:01:05;3.80;;;2.47;;
59434;SDS011;45241;49.768;8.636;2023-02-28T00:03:30;2.92;;;2.30;;
59434;SDS011;45241;49.768;8.636;2023-02-28T00:05:59;4.25;;;2.40;;
59434;SDS011;45241;49.768;8.636;2023-02-28T00:08:26;3.47;;;2.40;;
59434;SDS011;45241;49.768;8.636;2023-02-28T00:10:51;3.50;;;2.35;;
59434;SDS011;45241;49.768;8.636;2023-02-28T00:13:17;3.97;;;2.67;;
59434;SDS011;45241;49.768;8.636;2023-02-28T00:15:42;3.90;;;2.67;;
59434;SDS011;45241;49.768;8.636;2023-02-28T00:18:08;4.03;;;2.38;;
59434;SDS011;45241;49.768;8.636;2023-02-28T00:20:34;3.45;;;2.38;;
59434;SDS011;45241;49.768;8.636;2023-02-28T00:22:59;2.80;;;2.22;;
59434;SDS011;45241;49.768;8.636;2023-02-28T00:25:24;3.85;;;2.60;;
59434;SDS011;45241;49.768;8.636;2023-02-28T00:27:50;5.75;;;2.55;;
59434;SDS011;45241;49.768;8.636;2023-02-28T00:30:18;4.15;;;2.60;;
59434;SDS011;45241;49.768;8.636;2023-02-28T00:32:45;3.20;;;2.30;;
59434;SDS011;45241;49.768;8.636;2023-02-28T00:35:11;4.05;;;2.80;;
59434;SDS011;45241;49.768;8.636;2023-02-28T00:37:37;5.32;;;2.60;;
59434;SDS011;45241;49.768;8.636;2023-02-28T00:40:02;4.20;;;2.80;;
59434;SDS011;45241;49.768;8.636;2023-02-28T00:42:32;3.85;;;2.78;;
59434;SDS011;45241;49.768;8.636;2023-02-28T00:44:58;5.38;;;2.95;;
59434;SDS011;45241;49.768;8.636;2023-02-28T00:47:23;5.28;;;2.72;;
59434;SDS011;45241;49.768;8.636;2023-02-28T00:49:48;3.70;;;2.60;;
59434;SDS011;45241;49.768;8.636;2023-02-28T00:52:14;4.30;;;2.83;;
59434;SDS011;45241;49.768;8.636;2023-02-28T00:54:39;3.70;;;2.75;;
59434;SDS011;45241;49.768;8.636;2023-02-28T00:57:04;4.15;;;2.70;;
59434;SDS011;45241;49.768;8.636;2023-02-28T00:59:30;3.83;;;2.40;;
59434;SDS011;45241;49.768;8.636;2023-02-28T01:01:55;4.10;;;2.47;;
59434;SDS011;45241;49.768;8.636;2023-02-28T01:04:20;4.45;;;2.45;;
59434;SDS011;45241;49.768;8.636;2023-02-28T01:06:46;4.13;;;2.67;;
59434;SDS011;45241;49.768;8.636;2023-02-28T01:09:12;4.57;;;2.72;;
59434;SDS011;45241;49.768;8.636;2023-02-28T01:11:37;7.13;;;2.58;;
59434;SDS011;45241;49.768;8.636;2023-02-28T01:14:03;3.88;;;2.70;;
59434;SDS011;45241;49.768;8.636;2023-02-28T01:16:29;2.67;;;2.13;;
59434;SDS011;45241;49.768;8.636;2023-02-28T01:18:54;3.83;;;2.65;;
59434;SDS011;45241;49.768;8.636;2023-02-28T01:21:20;4.72;;;2.58;;
59434;SDS011;45241;49.768;8.636;2023-02-28T01:23:46;5.18;;;3.10;;
59434;SDS011;45241;49.768;8.636;2023-02-28T01:26:14;4.72;;;2.72;;
59434;SDS011;45241;49.768;8.636;2023-02-28T01:28:41;3.65;;;2.53;;
59434;SDS011;45241;49.768;8.636;2023-02-28T01:31:07;4.63;;;2.78;;
59434;SDS011;45241;49.768;8.636;2023-02-28T01:33:33;4.18;;;2.90;;
59434;SDS011;45241;49.768;8.636;2023-02-28T01:36:02;3.55;;;2.58;;
59434;SDS011;45241;49.768;8.636;2023-02-28T01:38:30;3.17;;;2.33;;
59434;SDS011;45241;49.768;8.636;2023-02-28T01:40:56;4.05;;;2.40;;
59434;SDS011;45241;49.768;8.636;2023-02-28T01:43:31;3.00;;;2.33;;
59434;SDS011;45241;49.768;8.636;2023-02-28T01:46:10;4.05;;;2.50;;
59434;SDS011;45241;49.768;8.636;2023-02-28T01:48:36;3.50;;;2.60;;
59434;SDS011;45241;49.768;8.636;2023-02-28T01:51:07;4.45;;;2.35;;
59434;SDS011;45241;49.768;8.636;2023-02-28T01:53:51;4.35;;;2.58;;
59434;SDS011;45241;49.768;8.636;2023-02-28T01:56:20;3.75;;;2.45;;
59434;SDS011;45241;49.768;8.636;2023-02-28T01:58:51;4.10;;;2.50;;
59434;SDS011;45241;49.768;8.636;2023-02-28T02:01:18;4.32;;;2.70;;
59434;SDS011;45241;49.768;8.636;2023-02-28T02:03:53;3.33;;;2.45;;
59434;SDS011;45241;49.768;8.636;2023-02-28T02:06:30;3.10;;;2.40;;
59434;SDS011;45241;49.768;8.636;2023-02-28T02:08:59;3.97;;;2.17;;
59434;SDS011;45241;49.768;8.636;2023-02-28T02:11:25;3.00;;;2.55;;
59434;SDS011;45241;49.768;8.636;2023-02-28T02:13:58;3.67;;;2.50;;
59434;SDS011;45241;49.768;8.636;2023-02-28T02:34:23;3.13;;;2.33;;
59434;SDS011;45241;49.768;8.636;2023-02-28T02:42:56;5.88;;;2.60;;
59434;SDS011;45241;49.768;8.636;2023-02-28T02:45:56;3.83;;;2.90;;
59434;SDS011;45241;49.768;8.636;2023-02-28T02:48:25;4.07;;;2.60;;
59434;SDS011;45241;49.768;8.636;2023-02-28T02:50:54;4.40;;;2.47;;
59434;SDS011;45241;49.768;8.636;2023-02-28T02:53:33;3.47;;;2.58;;
59434;SDS011;45241;49.768;8.636;2023-02-28T02:56:02;4.18;;;2.53;;
59434;SDS011;45241;49.768;8.636;2023-02-28T02:58:31;2.97;;;2.67;;
59434;SDS011;45241;49.768;8.636;2023-02-28T03:01:07;4.25;;;2.70;;
59434;SDS011;45241;49.768;8.636;2023-02-28T03:03:35;4.03;;;2.90;;
59434;SDS011;45241;49.768;8.636;2023-02-28T03:06:02;5.60;;;3.65;;
59434;SDS011;45241;49.768;8.636;2023-02-28T03:08:29;4.15;;;2.60;;
59434;SDS011;45241;49.768;8.636;2023-02-28T03:10:59;3.33;;;2.83;;
59434;SDS011;45241;49.768;8.636;2023-02-28T03:16:14;3.28;;;2.72;;
59434;SDS011;45241;49.768;8.636;2023-02-28T03:24:33;3.80;;;2.70;;
59434;SDS011;45241;49.768;8.636;2023-02-28T03:27:06;5.00;;;2.90;;
59434;SDS011;45241;49.768;8.636;2023-02-28T03:29:43;3.58;;;2.65;;
59434;SDS011;45241;49.768;8.636;2023-02-28T03:32:23;4.65;;;2.80;;
59434;SDS011;45241;49.768;8.636;2023-02-28T03:34:56;4.03;;;2.63;;
59434;SDS011;45241;49.768;8.636;2023-02-28T03:37:29;5.25;;;2.45;;
59434;SDS011;45241;49.768;8.636;2023-02-28T03:39:58;4.65;;;2.50;;
59434;SDS011;45241;49.768;8.636;2023-02-28T03:42:29;3.25;;;2.40;;
59434;SDS011;45241;49.768;8.636;2023-02-28T03:44:57;3.88;;;2.53;;
59434;SDS011;45241;49.768;8.636;2023-02-28T03:47:29;3.45;;;2.50;;
59434;SDS011;45241;49.768;8.636;2023-02-28T03:50:05;3.75;;;2.80;;
59434;SDS011;45241;49.768;8.636;2023-02-28T03:52:38;4.35;;;2.80;;
59434;SDS011;45241;49.768;8.636;2023-02-28T03:55:10;4.72;;;2.50;;
59434;SDS011;45241;49.768;8.636;2023-02-28T03:57:53;4.43;;;2.53;;
59434;SDS011;45241;49.768;8.636;2023-02-28T04:00:40;8.27;;;5.00;;
59434;SDS011;45241;49.768;8.636;2023-02-28T04:03:11;12.68;;;6.38;;
59434;SDS011;45241;49.768;8.636;2023-02-28T04:05:53;25.48;;;12.50;;
59434;SDS011;45241;49.768;8.636;2023-02-28T04:08:20;19.48;;;9.90;;
59434;SDS011;45241;49.768;8.636;2023-02-28T04:10:48;15.68;;;7.53;;
59434;SDS011;45241;49.768;8.636;2023-02-28T04:13:19;6.65;;;4.30;;
59434;SDS011;45241;49.768;8.636;2023-02-28T04:15:44;4.13;;;3.10;;
59434;SDS011;45241;49.768;8.636;2023-02-28T04:18:09;3.78;;;2.97;;
59434;SDS011;45241;49.768;8.636;2023-02-28T04:20:35;4.47;;;3.17;;
59434;SDS011;45241;49.768;8.636;2023-02-28T04:23:00;4.82;;;3.15;;
59434;SDS011;45241;49.768;8.636;2023-02-28T04:25:25;4.78;;;3.50;;
59434;SDS011;45241;49.768;8.636;2023-02-28T04:27:51;6.68;;;3.63;;
59434;SDS011;45241;49.768;8.636;2023-02-28T04:30:16;4.95;;;3.17;;
59434;SDS011;45241;49.768;8.636;2023-02-28T04:32:41;4.55;;;3.35;;
59434;SDS011;45241;49.768;8.636;2023-02-28T04:35:07;4.88;;;3.20;;
59434;SDS011;45241;49.768;8.636;2023-02-28T04:37:32;5.22;;;3.40;;
59434;SDS011;45241;49.768;8.636;2023-02-28T04:39:59;4.15;;;3.33;;
59434;SDS011;45241;49.768;8.636;2023-02-28T04:42:25;4.05;;;3.42;;
59434;SDS011;45241;49.768;8.636;2023-02-28T04:44:51;4.35;;;3.20;;
59434;SDS011;45241;49.768;8.636;2023-02-28T04:47:16;5.75;;;3.67;;
59434;SDS011;45241;49.768;8.636;2023-02-28T04:49:42;7.57;;;3.70;;
59434;SDS011;45241;49.768;8.636;2023-02-28T04:52:07;5.45;;;3.53;;
59434;SDS011;45241;49.768;8.636;2023-02-28T04:54:36;4.68;;;3.60;;
59434;SDS011;45241;49.768;8.636;2023-02-28T04:57:03;5.47;;;3.72;;
59434;SDS011;45241;49.768;8.636;2023-02-28T04:59:29;4.72;;;3.47;;
59434;SDS011;45241;49.768;8.636;2023-02-28T05:01:54;6.15;;;3.78;;
59434;SDS011;45241;49.768;8.636;2023-02-28T05:04:19;4.00;;;3.13;;
59434;SDS011;45241;49.768;8.636;2023-02-28T05:06:45;5.50;;;3.67;;
59434;SDS011;45241;49.768;8.636;2023-02-28T05:09:10;4.35;;;3.55;;
59434;SDS011;45241;49.768;8.636;2023-02-28T05:11:38;4.97;;;3.72;;
59434;SDS011;45241;49.768;8.636;2023-02-28T05:14:05;5.43;;;3.70;;
59434;SDS011;45241;49.768;8.636;2023-02-28T05:16:40;4.35;;;3.45;;
59434;SDS011;45241;49.768;8.636;2023-02-28T05:19:05;4.13;;;3.42;;
59434;SDS011;45241;49.768;8.636;2023-02-28T05:21:37;3.60;;;3.25;;
59434;SDS011;45241;49.768;8.636;2023-02-28T05:24:11;4.05;;;3.25;;
59434;SDS011;45241;49.768;8.636;2023-02-28T05:26:38;4.68;;;3.30;;
59434;SDS011;45241;49.768;8.636;2023-02-28T05:29:05;5.57;;;3.38;;
59434;SDS011;45241;49.768;8.636;2023-02-28T05:31:31;4.28;;;3.60;;
59434;SDS011;45241;49.768;8.636;2023-02-28T05:33:57;4.78;;;3.35;;
59434;SDS011;45241;49.768;8.636;2023-02-28T05:36:22;4.80;;;3.40;;
59434;SDS011;45241;49.768;8.636;2023-02-28T05:38:48;5.57;;;3.55;;
59434;SDS011;45241;49.768;8.636;2023-02-28T05:41:15;5.88;;;3.90;;
59434;SDS011;45241;49.768;8.636;2023-02-28T05:43:41;6.22;;;3.75;;
59434;SDS011;45241;49.768;8.636;2023-02-28T05:46:07;4.60;;;3.47;;
59434;SDS011;45241;49.768;8.636;2023-02-28T05:48:34;5.55;;;3.40;;
59434;SDS011;45241;49.768;8.636;2023-02-28T05:51:01;5.10;;;3.70;;
59434;SDS011;45241;49.768;8.636;2023-02-28T05:53:27;5.40;;;3.85;;
59434;SDS011;45241;49.768;8.636;2023-02-28T05:55:52;5.72;;;4.13;;
59434;SDS011;45241;49.768;8.636;2023-02-28T05:58:18;4.88;;;3.90;;
59434;SDS011;45241;49.768;8.636;2023-02-28T06:00:43;6.90;;;3.90;;
59434;SDS011;45241;49.768;8.636;2023-02-28T06:03:09;6.07;;;3.97;;
59434;SDS011;45241;49.768;8.636;2023-02-28T06:05:34;5.97;;;4.40;;
59434;SDS011;45241;49.768;8.636;2023-02-28T06:07:59;7.97;;;4.55;;
59434;SDS011;45241;49.768;8.636;2023-02-28T06:10:24;11.95;;;4.65;;
59434;SDS011;45241;49.768;8.636;2023-02-28T06:12:50;6.45;;;3.97;;
59434;SDS011;45241;49.768;8.636;2023-02-28T06:15:15;7.18;;;4.10;;
59434;SDS011;45241;49.768;8.636;2023-02-28T06:17:41;5.13;;;3.80;;
59434;SDS011;45241;49.768;8.636;2023-02-28T06:20:08;6.78;;;4.15;;
59434;SDS011;45241;49.768;8.636;2023-02-28T06:22:35;8.23;;;4.70;;
59434;SDS011;45241;49.768;8.636;2023-02-28T06:25:01;7.93;;;4.80;;
59434;SDS011;45241;49.768;8.636;2023-02-28T06:27:27;9.88;;;5.10;;
59434;SDS011;45241;49.768;8.636;2023-02-28T06:29:53;6.28;;;4.38;;
59434;SDS011;45241;49.768;8.636;2023-02-28T06:32:20;5.93;;;4.20;;
59434;SDS011;45241;49.768;8.636;2023-02-28T06:34:46;6.57;;;4.15;;
59434;SDS011;45241;49.768;8.636;2023-02-28T06:37:11;6.22;;;4.18;;
59434;SDS011;45241;49.768;8.636;2023-02-28T06:39:36;5.95;;;3.53;;
59434;SDS011;45241;49.768;8.636;2023-02-28T06:42:02;6.65;;;3.72;;
59434;SDS011;45241;49.768;8.636;2023-02-28T06:44:27;6.38;;;4.13;;
59434;SDS011;45241;49.768;8.636;2023-02-28T06:47:00;7.70;;;4.60;;
59434;SDS011;45241;49.768;8.636;2023-02-28T06:49:30;7.95;;;5.00;;
59434;SDS011;45241;49.768;8.636;2023-02-28T06:51:58;8.38;;;4.90;;
59434;SDS011;45241;49.768;8.636;2023-02-28T06:54:23;9.00;;;5.25;;
59434;SDS011;45241;49.768;8.636;2023-02-28T06:56:49;10.25;;;6.45;;
59434;SDS011;45241;49.768;8.636;2023-02-28T06:59:14;11.48;;;7.43;;
59434;SDS011;45241;49.768;8.636;2023-02-28T07:01:40;14.18;;;6.97;;
59434;SDS011;45241;49.768;8.636;2023-02-28T07:04:05;11.52;;;7.47;;
59434;SDS011;45241;49.768;8.636;2023-02-28T07:06:31;14.10;;;7.55;;
59434;SDS011;45241;49.768;8.636;2023-02-28T07:08:57;9.07;;;5.97;;
59434;SDS011;45241;49.768;8.636;2023-02-28T07:11:23;7.75;;;4.90;;
59434;SDS011;45241;49.768;8.636;2023-02-28T07:13:51;6.88;;;4.82;;
59434;SDS011;45241;49.768;8.636;2023-02-28T07:16:19;5.20;;;3.57;;
59434;SDS011;45241;49.768;8.636;2023-02-28T07:18:46;7.03;;;3.63;;
59434;SDS011;45241;49.768;8.636;2023-02-28T07:21:11;7.20;;;3.40;;
59434;SDS011;45241;49.768;8.636;2023-02-28T07:23:37;4.47;;;3.35;;
59434;SDS011;45241;49.768;8.636;2023-02-28T07:26:04;4.65;;;3.00;;
59434;SDS011;45241;49.768;8.636;2023-02-28T07:28:30;5.03;;;3.25;;
59434;SDS011;45241;49.768;8.636;2023-02-28T07:30:56;3.70;;;2.75;;
59434;SDS011;45241;49.768;8.636;2023-02-28T07:33:21;6.50;;;3.50;;
59434;SDS011;45241;49.768;8.636;2023-02-28T07:35:46;4.28;;;2.97;;
59434;SDS011;45241;49.768;8.636;2023-02-28T07:38:12;5.32;;;3.10;;
59434;SDS011;45241;49.768;8.636;2023-02-28T07:40:38;4.82;;;3.20;;
59434;SDS011;45241;49.768;8.636;2023-02-28T07:43:04;5.22;;;2.75;;
59434;SDS011;45241;49.768;8.636;2023-02-28T07:45:29;5.07;;;3.08;;
59434;SDS011;45241;49.768;8.636;2023-02-28T07:47:56;4.40;;;2.85;;
59434;SDS011;45241;49.768;8.636;2023-02-28T07:50:22;4.72;;;2.85;;
59434;SDS011;45241;49.768;8.636;2023-02-28T07:52:47;5.63;;;2.90;;
59434;SDS011;45241;49.768;8.636;2023-02-28T07:55:13;4.57;;;3.13;;
59434;SDS011;45241;49.768;8.636;2023-02-28T07:57:39;4.35;;;2.50;;
59434;SDS011;45241;49.768;8.636;2023-02-28T08:00:05;3.78;;;2.95;;
59434;SDS011;45241;49.768;8.636;2023-02-28T08:02:34;6.32;;;3.03;;
59434;SDS011;45241;49.768;8.636;2023-02-28T08:04:59;3.97;;;2.97;;
59434;SDS011;45241;49.768;8.636;2023-02-28T08:07:25;4.60;;;3.15;;
59434;SDS011;45241;49.768;8.636;2023-02-28T08:09:50;4.20;;;3.00;;
59434;SDS011;45241;49.768;8.636;2023-02-28T08:12:15;4.13;;;2.75;;
59434;SDS011;45241;49.768;8.636;2023-02-28T08:14:41;4.90;;;2.92;;
59434;SDS011;45241;49.768;8.636;2023-02-28T08:17:06;4.45;;;3.00;;
59434;SDS011;45241;49.768;8.636;2023-02-28T08:19:32;4.45;;;3.13;;
59434;SDS011;45241;49.768;8.636;2023-02-28T08:21:57;6.32;;;3.33;;
59434;SDS011;45241;49.768;8.636;2023-02-28T08:24:23;6.70;;;3.38;;
59434;SDS011;45241;49.768;8.636;2023-02-28T08:26:48;5.38;;;3.72;;
59434;SDS011;45241;49.768;8.636;2023-02-28T08:29:14;6.85;;;3.40;;
59434;SDS011;45241;49.768;8.636;2023-02-28T08:31:39;5.47;;;3.03;;
59434;SDS011;45241;49.768;8.636;2023-02-28T08:34:07;5.55;;;3.55;;
59434;SDS011;45241;49.768;8.636;2023-02-28T08:36:37;6.72;;;3.28;;
59434;SDS011;45241;49.768;8.636;2023-02-28T08:39:02;5.82;;;3.40;;
59434;SDS011;45241;49.768;8.636;2023-02-28T08:41:28;5.88;;;3.55;;
59434;SDS011;45241;49.768;8.636;2023-02-28T08:43:54;4.45;;;3.53;;
59434;SDS011;45241;49.768;8.636;2023-02-28T08:46:19;5.03;;;3.70;;
59434;SDS011;45241;49.768;8.636;2023-02-28T08:48:45;5.97;;;3.90;;
59434;SDS011;45241;49.768;8.636;2023-02-28T08:51:11;6.63;;;3.53;;
59434;SDS011;45241;49.768;8.636;2023-02-28T08:53:39;6.22;;;3.38;;
59434;SDS011;45241;49.768;8.636;2023-02-28T08:56:06;6.70;;;3.83;;
59434;SDS011;45241;49.768;8.636;2023-02-28T08:58:33;5.97;;;3.70;;
59434;SDS011;45241;49.768;8.636;2023-02-28T09:00:59;7.50;;;4.10;;
59434;SDS011;45241;49.768;8.636;2023-02-28T09:03:24;5.75;;;4.22;;
59434;SDS011;45241;49.768;8.636;2023-02-28T09:05:57;7.30;;;4.20;;
59434;SDS011;45241;49.768;8.636;2023-02-28T09:08:24;4.97;;;4.18;;
59434;SDS011;45241;49.768;8.636;2023-02-28T09:10:51;7.32;;;4.25;;
59434;SDS011;45241;49.768;8.636;2023-02-28T09:13:17;7.57;;;4.35;;
59434;SDS011;45241;49.768;8.636;2023-02-28T09:15:43;6.10;;;3.75;;
59434;SDS011;45241;49.768;8.636;2023-02-28T09:18:09;7.60;;;4.47;;
59434;SDS011;45241;49.768;8.636;2023-02-28T09:20:36;6.78;;;4.63;;
59434;SDS011;45241;49.768;8.636;2023-02-28T09:23:02;5.55;;;3.85;;
59434;SDS011;45241;49.768;8.636;2023-02-28T09:25:28;6.55;;;4.25;;
59434;SDS011;45241;49.768;8.636;2023-02-28T09:27:53;6.65;;;3.78;;
59434;SDS011;45241;49.768;8.636;2023-02-28T09:30:18;6.30;;;4.50;;
59434;SDS011;45241;49.768;8.636;2023-02-28T09:32:43;5.95;;;4.40;;
59434;SDS011;45241;49.768;8.636;2023-02-28T09:35:16;6.70;;;4.18;;
59434;SDS011;45241;49.768;8.636;2023-02-28T09:37:42;6.85;;;4.30;;
59434;SDS011;45241;49.768;8.636;2023-02-28T09:40:08;8.02;;;5.00;;
59434;SDS011;45241;49.768;8.636;2023-02-28T09:42:35;8.07;;;5.32;;
59434;SDS011;45241;49.768;8.636;2023-02-28T09:45:00;7.57;;;5.18;;
59434;SDS011;45241;49.768;8.636;2023-02-28T09:47:33;6.40;;;4.68;;
59434;SDS011;45241;49.768;8.636;2023-02-28T09:50:04;8.18;;;5.18;;
59434;SDS011;45241;49.768;8.636;2023-02-28T09:52:45;8.50;;;4.95;;
59434;SDS011;45241;49.768;8.636;2023-02-28T09:57:40;6.82;;;4.60;;
59434;SDS011;45241;49.768;8.636;2023-02-28T10:00:28;7.38;;;4.60;;
59434;SDS011;45241;49.768;8.636;2023-02-28T10:08:39;8.20;;;5.32;;
59434;SDS011;45241;49.768;8.636;2023-02-28T10:11:15;7.65;;;5.03;;
59434;SDS011;45241;49.768;8.636;2023-02-28T10:13:49;7.30;;;5.20;;
59434;SDS011;45241;49.768;8.636;2023-02-28T10:19:28;8.77;;;4.35;;
59434;SDS011;45241;49.768;8.636;2023-02-28T10:22:03;6.70;;;4.40;;
59434;SDS011;45241;49.768;8.636;2023-02-28T10:24:37;6.95;;;4.50;;
59434;SDS011;45241;49.768;8.636;2023-02-28T10:27:14;9.57;;;5.10;;
59434;SDS011;45241;49.768;8.636;2023-02-28T10:29:40;5.43;;;3.90;;
59434;SDS011;45241;49.768;8.636;2023-02-28T10:32:08;6.72;;;5.00;;
59434;SDS011;45241;49.768;8.636;2023-02-28T10:34:36;6.35;;;4.82;;
59434;SDS011;45241;49.768;8.636;2023-02-28T10:37:01;6.55;;;4.43;;
59434;SDS011;45241;49.768;8.636;2023-02-28T10:39:40;7.72;;;4.40;;
59434;SDS011;45241;49.768;8.636;2023-02-28T10:44:55;5.55;;;4.13;;
59434;SDS011;45241;49.768;8.636;2023-02-28T10:47:30;6.72;;;4.40;;
59434;SDS011;45241;49.768;8.636;2023-02-28T10:49:57;7.47;;;4.65;;
59434;SDS011;45241;49.768;8.636;2023-02-28T10:52:39;6.07;;;4.57;;
59434;SDS011;45241;49.768;8.636;2023-02-28T10:57:59;7.32;;;4.80;;
59434;SDS011;45241;49.768;8.636;2023-02-28T11:00:25;6.38;;;4.72;;
59434;SDS011;45241;49.768;8.636;2023-02-28T11:02:58;6.88;;;4.53;;
59434;SDS011;45241;49.768;8.636;2023-02-28T11:05:25;7.78;;;4.90;;
59434;SDS011;45241;49.768;8.636;2023-02-28T11:07:57;5.97;;;4.72;;
59434;SDS011;45241;49.768;8.636;2023-02-28T11:10:30;7.28;;;4.97;;
59434;SDS011;45241;49.768;8.636;2023-02-28T11:12:59;7.78;;;4.63;;
59434;SDS011;45241;49.768;8.636;2023-02-28T11:15:29;7.15;;;5.05;;
59434;SDS011;45241;49.768;8.636;2023-02-28T11:20:26;7.00;;;5.18;;
59434;SDS011;45241;49.768;8.636;2023-02-28T11:22:53;8.60;;;5.00;;
59434;SDS011;45241;49.768;8.636;2023-02-28T11:25:27;7.15;;;5.22;;
59434;SDS011;45241;49.768;8.636;2023-02-28T11:28:00;9.13;;;5.65;;
59434;SDS011;45241;49.768;8.636;2023-02-28T11:30:49;7.75;;;5.13;;
59434;SDS011;45241;49.768;8.636;2023-02-28T11:33:30;8.10;;;5.18;;
59434;SDS011;45241;49.768;8.636;2023-02-28T11:35:59;7.07;;;4.90;;
59434;SDS011;45241;49.768;8.636;2023-02-28T11:46:15;6.47;;;5.25;;
59434;SDS011;45241;49.768;8.636;2023-02-28T11:51:42;8.00;;;5.07;;
59434;SDS011;45241;49.768;8.636;2023-02-28T11:59:51;8.25;;;4.90;;
59434;SDS011;45241;49.768;8.636;2023-02-28T12:02:28;8.15;;;4.70;;
59434;SDS011;45241;49.768;8.636;2023-02-28T12:05:13;7.35;;;5.20;;
59434;SDS011;45241;49.768;8.636;2023-02-28T12:08:04;8.30;;;5.40;;
59434;SDS011;45241;49.768;8.636;2023-02-28T12:11:04;8.53;;;6.30;;
59434;SDS011;45241;49.768;8.636;2023-02-28T12:16:59;8.25;;;5.03;;
59434;SDS011;45241;49.768;8.636;2023-02-28T12:22:30;7.57;;;5.55;;
59434;SDS011;45241;49.768;8.636;2023-02-28T12:27:40;10.07;;;5.55;;
59434;SDS011;45241;49.768;8.636;2023-02-28T12:32:47;7.45;;;5.20;;
59434;SDS011;45241;49.768;8.636;2023-02-28T12:35:19;7.53;;;5.53;;
59434;SDS011;45241;49.768;8.636;2023-02-28T12:37:51;9.73;;;5.13;;
59434;SDS011;45241;49.768;8.636;2023-02-28T12:40:23;7.32;;;5.10;;
59434;SDS011;45241;49.768;8.636;2023-02-28T12:42:56;8.68;;;5.35;;
59434;SDS011;45241;49.768;8.636;2023-02-28T12:45:38;8.48;;;5.70;;
59434;SDS011;45241;49.768;8.636;2023-02-28T12:48:08;7.15;;;5.03;;
59434;SDS011;45241;49.768;8.636;2023-02-28T12:50:38;8.98;;;5.88;;
59434;SDS011;45241;49.768;8.636;2023-02-28T12:56:08;6.82;;;4.93;;
59434;SDS011;45241;49.768;8.636;2023-02-28T13:09:55;8.63;;;5.65;;
59434;SDS011;45241;49.768;8.636;2023-02-28T13:12:24;6.93;;;5.18;;
59434;SDS011;45241;49.768;8.636;2023-02-28T13:14:51;8.02;;;5.20;;
59434;SDS011;45241;49.768;8.636;2023-02-28T13:17:29;8.50;;;5.70;;
59434;SDS011;45241;49.768;8.636;2023-02-28T13:19:56;9.30;;;5.50;;
59434;SDS011;45241;49.768;8.636;2023-02-28T13:25:04;8.55;;;5.80;;
59434;SDS011;45241;49.768;8.636;2023-02-28T13:27:51;8.38;;;5.57;;
59434;SDS011;45241;49.768;8.636;2023-02-28T13:33:21;8.27;;;6.43;;
59434;SDS011;45241;49.768;8.636;2023-02-28T13:54:44;8.90;;;5.88;;
59434;SDS011;45241;49.768;8.636;2023-02-28T14:03:33;7.68;;;5.40;;
59434;SDS011;45241;49.768;8.636;2023-02-28T14:11:51;8.75;;;5.60;;
59434;SDS011;45241;49.768;8.636;2023-02-28T14:17:04;9.27;;;5.90;;
59434;SDS011;45241;49.768;8.636;2023-02-28T14:19:34;8.35;;;5.95;;
59434;SDS011;45241;49.768;8.636;2023-02-28T14:33:35;8.63;;;5.28;;
59434;SDS011;45241;49.768;8.636;2023-02-28T14:41:32;7.60;;;5.15;;
59434;SDS011;45241;49.768;8.636;2023-02-28T14:44:25;9.35;;;5.50;;
59434;SDS011;45241;49.768;8.636;2023-02-28T14:46:52;7.75;;;5.13;;
59434;SDS011;45241;49.768;8.636;2023-02-28T14:54:35;7.43;;;5.15;;
59434;SDS011;45241;49.768;8.636;2023-02-28T14:57:01;9.68;;;6.13;;
59434;SDS011;45241;49.768;8.636;2023-02-28T14:59:29;8.38;;;5.50;;
59434;SDS011;45241;49.768;8.636;2023-02-28T15:04:55;7.00;;;5.15;;
59434;SDS011;45241;49.768;8.636;2023-02-28T15:07:41;7.97;;;5.18;;
59434;SDS011;45241;49.768;8.636;2023-02-28T15:10:13;8.85;;;5.28;;
59434;SDS011;45241;49.768;8.636;2023-02-28T15:12:45;8.85;;;5.28;;
59434;SDS011;45241;49.768;8.636;2023-02-28T15:15:15;9.23;;;4.85;;
59434;SDS011;45241;49.768;8.636;2023-02-28T15:17:42;7.97;;;5.32;;
59434;SDS011;45241;49.768;8.636;2023-02-28T15:20:11;7.93;;;5.18;;
59434;SDS011;45241;49.768;8.636;2023-02-28T15:22:39;8.60;;;5.40;;
59434;SDS011;45241;49.768;8.636;2023-02-28T15:25:05;6.95;;;4.75;;
59434;SDS011;45241;49.768;8.636;2023-02-28T15:27:35;7.27;;;5.17;;
59434;SDS011;45241;49.768;8.636;2023-02-28T15:30:08;9.60;;;6.00;;
59434;SDS011;45241;49.768;8.636;2023-02-28T15:32:40;8.32;;;5.30;;
59434;SDS011;45241;49.768;8.636;2023-02-28T15:37:53;8.70;;;5.88;;
59434;SDS011;45241;49.768;8.636;2023-02-28T15:40:23;7.43;;;5.10;;
59434;SDS011;45241;49.768;8.636;2023-02-28T15:42:58;8.27;;;5.60;;
59434;SDS011;45241;49.768;8.636;2023-02-28T15:45:27;8.82;;;5.45;;
59434;SDS011;45241;49.768;8.636;2023-02-28T15:48:09;7.57;;;5.22;;
59434;SDS011;45241;49.768;8.636;2023-02-28T15:50:40;10.50;;;4.85;;
59434;SDS011;45241;49.768;8.636;2023-02-28T15:53:10;6.55;;;4.80;;
59434;SDS011;45241;49.768;8.636;2023-02-28T15:55:44;8.57;;;5.30;;
59434;SDS011;45241;49.768;8.636;2023-02-28T15:58:10;8.27;;;5.53;;
59434;SDS011;45241;49.768;8.636;2023-02-28T16:00:38;7.45;;;5.07;;
59434;SDS011;45241;49.768;8.636;2023-02-28T16:03:23;12.68;;;5.82;;
59434;SDS011;45241;49.768;8.636;2023-02-28T16:06:24;7.55;;;5.03;;
59434;SDS011;45241;49.768;8.636;2023-02-28T16:11:19;9.40;;;5.37;;
59434;SDS011;45241;49.768;8.636;2023-02-28T16:13:45;6.80;;;5.10;;
59434;SDS011;45241;49.768;8.636;2023-02-28T16:16:15;7.53;;;4.88;;
59434;SDS011;45241;49.768;8.636;2023-02-28T16:18:42;7.30;;;5.07;;
59434;SDS011;45241;49.768;8.636;2023-02-28T16:21:08;7.72;;;5.57;;
59434;SDS011;45241;49.768;8.636;2023-02-28T16:23:33;9.38;;;5.72;;
59434;SDS011;45241;49.768;8.636;2023-02-28T16:25:59;8.90;;;5.35;;
59434;SDS011;45241;49.768;8.636;2023-02-28T16:28:25;9.60;;;5.30;;
59434;SDS011;45241;49.768;8.636;2023-02-28T16:30:56;7.53;;;5.03;;
59434;SDS011;45241;49.768;8.636;2023-02-28T16:33:21;8.82;;;5.30;;
59434;SDS011;45241;49.768;8.636;2023-02-28T16:35:46;9.73;;;5.20;;
59434;SDS011;45241;49.768;8.636;2023-02-28T16:38:12;7.60;;;4.93;;
59434;SDS011;45241;49.768;8.636;2023-02-28T16:40:37;8.57;;;5.10;;
59434;SDS011;45241;49.768;8.636;2023-02-28T16:43:14;9.35;;;6.18;;
59434;SDS011;45241;49.768;8.636;2023-02-28T16:45:44;8.63;;;5.55;;
59434;SDS011;45241;49.768;8.636;2023-02-28T16:48:14;7.90;;;5.88;;
59434;SDS011;45241;49.768;8.636;2023-02-28T16:50:40;8.93;;;5.80;;
59434;SDS011;45241;49.768;8.636;2023-02-28T16:53:07;10.02;;;5.38;;
59434;SDS011;45241;49.768;8.636;2023-02-28T16:55:32;10.10;;;6.05;;
59434;SDS011;45241;49.768;8.636;2023-02-28T16:58:00;7.40;;;5.68;;
59434;SDS011;45241;49.768;8.636;2023-02-28T17:00:26;8.45;;;6.03;;
59434;SDS011;45241;49.768;8.636;2023-02-28T17:02:53;10.57;;;5.85;;
59434;SDS011;45241;49.768;8.636;2023-02-28T17:05:19;9.07;;;5.43;;
59434;SDS011;45241;49.768;8.636;2023-02-28T17:07:48;7.82;;;6.20;;
59434;SDS011;45241;49.768;8.636;2023-02-28T17:10:21;8.05;;;5.70;;
59434;SDS011;45241;49.768;8.636;2023-02-28T17:12:48;10.27;;;6.80;;
59434;SDS011;45241;49.768;8.636;2023-02-28T17:15:15;8.15;;;5.50;;
59434;SDS011;45241;49.768;8.636;2023-02-28T17:17:41;9.55;;;6.13;;
59434;SDS011;45241;49.768;8.636;2023-02-28T17:20:18;8.30;;;5.57;;
59434;SDS011;45241;49.768;8.636;2023-02-28T17:25:16;9.30;;;6.00;;
59434;SDS011;45241;49.768;8.636;2023-02-28T17:27:42;7.90;;;5.65;;
59434;SDS011;45241;49.768;8.636;2023-02-28T17:30:15;10.90;;;6.43;;
59434;SDS011;45241;49.768;8.636;2023-02-28T17:32:42;7.85;;;6.00;;
59434;SDS011;45241;49.768;8.636;2023-02-28T17:35:07;11.35;;;6.47;;
59434;SDS011;45241;49.768;8.636;2023-02-28T17:37:33;8.68;;;5.75;;
59434;SDS011;45241;49.768;8.636;2023-02-28T17:39:58;9.40;;;6.32;;
59434;SDS011;45241;49.768;8.636;2023-02-28T17:42:24;9.95;;;6.40;;
59434;SDS011;45241;49.768;8.636;2023-02-28T17:44:49;11.13;;;6.38;;